createdAt,value
2018-09-30T00:02:19.866Z,0.70
2018-09-30T00:04:47.903Z,0.70
2018-09-30T00:07:15.873Z,0.70
2018-09-30T00:09:43.743Z,0.70
2018-09-30T00:12:11.763Z,0.70
2018-09-30T00:14:39.785Z,0.60
2018-09-30T00:17:08.001Z,0.70
2018-09-30T00:19:36.154Z,0.60
2018-09-30T00:22:04.385Z,0.60
2018-09-30T00:24:37.781Z,0.60
2018-09-30T00:27:11.480Z,0.60
2018-09-30T00:29:39.576Z,0.60
2018-09-30T00:32:07.650Z,0.60
2018-09-30T00:34:35.611Z,0.50
2018-09-30T00:37:04.831Z,0.50
2018-09-30T00:39:32.727Z,0.50
2018-09-30T00:42:00.856Z,0.60
2018-09-30T00:44:28.851Z,0.50
2018-09-30T00:46:56.926Z,0.50
2018-09-30T00:49:25.342Z,0.60
2018-09-30T00:51:53.154Z,0.60
2018-09-30T00:54:21.045Z,0.60
2018-09-30T00:56:49.041Z,0.60
2018-09-30T00:59:17.143Z,0.60
2018-09-30T01:01:45.284Z,0.50
2018-09-30T01:04:13.352Z,0.50
2018-09-30T01:06:41.771Z,0.50
2018-09-30T01:09:12.706Z,0.60
2018-09-30T01:11:40.738Z,0.60
2018-09-30T01:14:08.960Z,0.60
2018-09-30T01:16:37.144Z,0.50
2018-09-30T01:19:05.212Z,0.50
2018-09-30T01:21:34.617Z,0.50
2018-09-30T01:24:02.604Z,0.50
2018-09-30T01:26:30.780Z,0.50
2018-09-30T01:28:58.725Z,0.40
2018-09-30T01:31:26.796Z,0.40
2018-09-30T01:33:55.164Z,0.40
2018-09-30T01:36:23.456Z,0.30
2018-09-30T01:38:51.350Z,0.30
2018-09-30T01:41:19.339Z,0.30
2018-09-30T01:43:47.140Z,0.30
2018-09-30T01:46:15.292Z,0.30
2018-09-30T01:48:43.107Z,0.30
2018-09-30T01:51:11.087Z,0.30
2018-09-30T01:53:38.924Z,0.30
2018-09-30T01:56:06.915Z,0.20
2018-09-30T01:58:34.724Z,0.20
2018-09-30T02:01:02.487Z,0.20
2018-09-30T02:03:30.587Z,0.20
2018-09-30T02:05:58.663Z,0.20
2018-09-30T02:08:26.562Z,0.20
2018-09-30T02:10:54.904Z,0.20
2018-09-30T02:13:22.952Z,0.20
2018-09-30T02:15:51.174Z,0.20
2018-09-30T02:18:19.213Z,0.20
2018-09-30T02:20:47.257Z,0.20
2018-09-30T02:23:15.130Z,0.20
2018-09-30T02:25:43.619Z,0.10
2018-09-30T02:28:11.483Z,0.10
2018-09-30T02:30:39.410Z,0.10
2018-09-30T02:33:07.212Z,0.00
2018-09-30T02:35:35.224Z,0.00
2018-09-30T02:38:03.298Z,0.00
2018-09-30T02:40:31.127Z,0.00
2018-09-30T02:42:59.085Z,0.00
2018-09-30T02:45:27.181Z,0.00
2018-09-30T02:47:55.073Z,0.00
2018-09-30T02:50:22.764Z,0.00
2018-09-30T02:52:50.916Z,0.00
2018-09-30T02:55:18.814Z,0.00
2018-09-30T02:57:46.599Z,-0.10
2018-09-30T03:00:14.654Z,0.00
2018-09-30T03:02:42.906Z,-0.10
2018-09-30T03:05:10.694Z,-0.10
2018-09-30T03:07:44.218Z,-0.10
2018-09-30T03:10:12.029Z,-0.10
2018-09-30T03:12:40.119Z,-0.10
2018-09-30T03:15:08.049Z,-0.10
2018-09-30T03:17:35.973Z,-0.10
2018-09-30T03:20:03.853Z,-0.10
2018-09-30T03:22:31.982Z,-0.10
2018-09-30T03:25:14.695Z,-0.10
2018-09-30T03:27:42.464Z,-0.10
2018-09-30T03:30:10.339Z,-0.10
2018-09-30T03:32:38.127Z,-0.10
2018-09-30T03:35:06.207Z,-0.20
2018-09-30T03:37:34.028Z,-0.20
2018-09-30T03:40:02.113Z,-0.20
2018-09-30T03:42:30.955Z,-0.20
2018-09-30T03:44:58.992Z,-0.20
2018-09-30T03:47:26.985Z,-0.20
2018-09-30T03:49:54.843Z,-0.20
2018-09-30T03:52:22.547Z,-0.20
2018-09-30T03:54:50.532Z,-0.20
2018-09-30T03:57:22.244Z,-0.20
2018-09-30T03:59:50.230Z,-0.30
2018-09-30T04:02:18.072Z,-0.30
2018-09-30T04:04:45.874Z,-0.30
2018-09-30T04:07:13.690Z,-0.30
2018-09-30T04:09:41.558Z,-0.30
2018-09-30T04:12:09.616Z,-0.30
2018-09-30T04:14:38.122Z,-0.30
2018-09-30T04:17:05.962Z,-0.40
2018-09-30T04:19:34.228Z,-0.40
2018-09-30T04:22:02.204Z,-0.40
2018-09-30T04:24:30.123Z,-0.40
2018-09-30T04:26:58.970Z,-0.50
2018-09-30T04:29:27.047Z,-0.50
2018-09-30T04:31:54.988Z,-0.50
2018-09-30T04:34:22.939Z,-0.50
2018-09-30T04:36:51.242Z,-0.50
2018-09-30T04:39:19.177Z,-0.50
2018-09-30T04:41:47.031Z,-0.50
2018-09-30T04:44:15.043Z,-0.40
2018-09-30T04:46:42.855Z,-0.40
2018-09-30T04:49:10.882Z,-0.50
2018-09-30T04:51:38.928Z,-0.50
2018-09-30T04:54:07.213Z,-0.50
2018-09-30T04:56:35.485Z,-0.50
2018-09-30T04:59:03.394Z,-0.50
2018-09-30T05:01:31.341Z,-0.50
2018-09-30T05:03:59.241Z,-0.50
2018-09-30T05:06:27.318Z,-0.50
2018-09-30T05:08:55.593Z,-0.50
2018-09-30T05:11:23.506Z,-0.50
2018-09-30T05:13:51.904Z,-0.50
2018-09-30T05:16:19.817Z,-0.50
2018-09-30T05:18:47.740Z,-0.50
2018-09-30T05:21:15.749Z,-0.40
2018-09-30T05:23:43.591Z,-0.40
2018-09-30T05:26:11.757Z,-0.40
2018-09-30T05:28:39.930Z,-0.40
2018-09-30T05:31:08.163Z,-0.30
2018-09-30T05:33:36.094Z,-0.20
2018-09-30T05:36:03.990Z,-0.20
2018-09-30T05:38:32.125Z,-0.20
2018-09-30T05:41:00.123Z,-0.20
2018-09-30T05:43:28.178Z,-0.20
2018-09-30T05:45:56.169Z,-0.10
2018-09-30T05:48:30.768Z,-0.10
2018-09-30T05:50:58.824Z,-0.10
2018-09-30T05:53:26.615Z,-0.10
2018-09-30T05:55:54.627Z,-0.10
2018-09-30T05:58:22.730Z,-0.10
2018-09-30T06:00:51.558Z,0.10
2018-09-30T06:03:19.496Z,0.20
2018-09-30T06:05:47.528Z,0.20
2018-09-30T06:08:15.292Z,0.20
2018-09-30T06:10:43.880Z,0.20
2018-09-30T06:13:12.231Z,0.20
2018-09-30T06:15:40.608Z,0.20
2018-09-30T06:18:08.754Z,0.20
2018-09-30T06:20:36.578Z,0.20
2018-09-30T06:23:04.455Z,0.30
2018-09-30T06:25:32.751Z,0.40
2018-09-30T06:28:00.793Z,0.90
2018-09-30T06:30:28.795Z,1.10
2018-09-30T06:32:57.170Z,1.00
2018-09-30T06:35:25.454Z,1.00
2018-09-30T06:37:53.807Z,1.00
2018-09-30T06:40:21.805Z,1.40
2018-09-30T06:42:50.179Z,1.50
2018-09-30T06:45:18.179Z,1.60
2018-09-30T06:47:46.126Z,1.60
2018-09-30T06:50:14.028Z,1.50
2018-09-30T06:52:42.168Z,1.60
2018-09-30T06:55:10.767Z,1.60
2018-09-30T06:57:39.262Z,1.70
2018-09-30T07:00:07.595Z,1.70
2018-09-30T07:02:36.256Z,2.00
2018-09-30T07:05:05.084Z,2.30
2018-09-30T07:07:33.524Z,2.60
2018-09-30T07:10:01.356Z,3.10
2018-09-30T07:12:29.807Z,3.40
2018-09-30T07:14:59.502Z,3.60
2018-09-30T07:17:27.431Z,4.10
2018-09-30T07:19:55.368Z,4.60
2018-09-30T07:22:23.605Z,5.10
2018-09-30T07:24:51.451Z,5.40
2018-09-30T07:27:19.335Z,5.70
2018-09-30T07:29:47.740Z,6.00
2018-09-30T07:32:16.216Z,6.30
2018-09-30T07:34:44.089Z,6.70
2018-09-30T07:37:12.267Z,7.00
2018-09-30T07:39:40.212Z,7.30
2018-09-30T07:42:08.414Z,7.60
2018-09-30T07:44:36.488Z,7.90
2018-09-30T07:47:04.461Z,8.00
2018-09-30T07:49:32.682Z,8.10
2018-09-30T07:52:00.649Z,8.20
2018-09-30T07:54:28.857Z,8.40
2018-09-30T07:56:56.930Z,8.60
2018-09-30T07:59:24.942Z,8.70
2018-09-30T08:01:53.408Z,8.90
2018-09-30T08:04:21.270Z,9.00
2018-09-30T08:06:50.273Z,9.10
2018-09-30T08:09:18.150Z,9.20
2018-09-30T08:11:46.148Z,9.30
2018-09-30T08:14:14.374Z,9.50
2018-09-30T08:16:42.375Z,9.60
2018-09-30T08:19:10.685Z,9.70
2018-09-30T08:21:38.807Z,9.90
2018-09-30T08:24:07.386Z,10.10
2018-09-30T08:26:36.494Z,10.30
2018-09-30T08:29:04.649Z,10.50
2018-09-30T08:31:32.877Z,10.80
2018-09-30T08:34:01.281Z,11.00
2018-09-30T08:36:29.411Z,11.30
2018-09-30T08:38:57.712Z,11.50
2018-09-30T08:41:25.783Z,11.70
2018-09-30T08:43:54.997Z,11.80
2018-09-30T08:46:23.579Z,12.00
2018-09-30T08:48:51.588Z,12.10
2018-09-30T08:51:19.665Z,12.50
2018-09-30T08:53:48.548Z,12.70
2018-09-30T08:56:16.662Z,12.90
2018-09-30T08:58:44.780Z,13.10
2018-09-30T09:01:12.824Z,13.20
2018-09-30T09:03:40.712Z,13.40
2018-09-30T09:06:08.741Z,13.50
2018-09-30T09:08:36.784Z,13.60
2018-09-30T09:11:04.780Z,13.70
2018-09-30T09:13:32.974Z,13.80
2018-09-30T09:16:00.935Z,13.90
2018-09-30T09:18:29.133Z,14.10
2018-09-30T09:20:57.110Z,14.20
2018-09-30T09:23:25.383Z,14.30
2018-09-30T09:25:53.633Z,14.40
2018-09-30T09:28:21.830Z,14.50
2018-09-30T09:30:49.644Z,14.60
2018-09-30T09:33:17.595Z,14.80
2018-09-30T09:35:46.487Z,14.90
2018-09-30T09:38:14.664Z,15.00
2018-09-30T09:40:42.772Z,15.20
2018-09-30T09:43:10.674Z,15.30
2018-09-30T09:45:38.887Z,15.40
2018-09-30T09:48:06.805Z,15.50
2018-09-30T09:50:34.924Z,15.60
2018-09-30T09:53:03.002Z,15.70
2018-09-30T09:55:31.025Z,15.70
2018-09-30T09:57:58.982Z,15.80
2018-09-30T10:00:35.388Z,15.80
2018-09-30T10:03:03.513Z,15.80
2018-09-30T10:05:31.329Z,15.90
2018-09-30T10:07:59.446Z,16.00
2018-09-30T10:10:27.293Z,16.10
2018-09-30T10:12:55.268Z,16.20
2018-09-30T10:15:24.055Z,16.30
2018-09-30T10:17:51.888Z,16.30
2018-09-30T10:20:20.040Z,16.40
2018-09-30T10:22:48.149Z,16.50
2018-09-30T10:25:16.153Z,16.50
2018-09-30T10:27:44.628Z,16.50
2018-09-30T10:30:12.940Z,16.60
2018-09-30T10:32:40.893Z,16.60
2018-09-30T10:35:08.944Z,16.50
2018-09-30T10:37:37.230Z,16.50
2018-09-30T10:40:06.554Z,16.50
2018-09-30T10:42:35.373Z,16.50
2018-09-30T10:45:04.707Z,16.50
2018-09-30T10:47:33.116Z,16.60
2018-09-30T10:50:01.174Z,16.70
2018-09-30T10:52:29.841Z,16.80
2018-09-30T10:54:58.153Z,16.90
2018-09-30T10:57:26.144Z,16.90
2018-09-30T10:59:54.395Z,17.10
2018-09-30T11:02:22.912Z,17.00
2018-09-30T11:04:50.877Z,16.90
2018-09-30T11:07:19.178Z,16.90
2018-09-30T11:09:47.354Z,16.90
2018-09-30T11:12:15.504Z,17.00
2018-09-30T11:14:45.152Z,17.10
2018-09-30T11:19:56.840Z,16.90
2018-09-30T11:22:24.955Z,16.90
2018-09-30T11:24:52.895Z,16.70
2018-09-30T11:27:20.777Z,16.70
2018-09-30T11:29:49.080Z,16.60
2018-09-30T11:32:17.137Z,16.60
2018-09-30T11:34:45.086Z,16.80
2018-09-30T11:37:13.120Z,16.90
2018-09-30T11:39:41.099Z,16.90
2018-09-30T11:42:09.150Z,16.80
2018-09-30T11:44:37.259Z,16.70
2018-09-30T11:47:05.299Z,16.70
2018-09-30T11:49:33.550Z,16.70
2018-09-30T11:52:01.483Z,16.80
2018-09-30T11:54:29.443Z,16.80
2018-09-30T11:56:57.425Z,16.90
2018-09-30T11:59:25.616Z,16.90
2018-09-30T12:01:54.237Z,17.10
2018-09-30T12:04:22.430Z,17.20
2018-09-30T12:06:54.443Z,17.20
2018-09-30T12:09:23.027Z,17.20
2018-09-30T12:11:51.064Z,17.30
2018-09-30T12:14:19.999Z,17.30
2018-09-30T12:16:47.823Z,17.30
2018-09-30T12:19:18.700Z,17.40
2018-09-30T12:21:46.799Z,17.40
2018-09-30T12:24:14.754Z,17.50
2018-09-30T12:26:43.195Z,17.50
2018-09-30T12:29:11.717Z,17.50
2018-09-30T12:31:39.973Z,17.40
2018-09-30T12:34:08.666Z,17.50
2018-09-30T12:36:38.343Z,17.50
2018-09-30T12:39:08.935Z,17.60
2018-09-30T12:41:38.017Z,17.60
2018-09-30T12:44:06.079Z,17.60
2018-09-30T12:46:34.571Z,17.60
2018-09-30T12:49:03.533Z,17.70
2018-09-30T12:51:32.641Z,17.60
2018-09-30T12:54:00.757Z,17.60
2018-09-30T12:56:28.984Z,17.60
2018-09-30T12:58:58.526Z,17.60
2018-09-30T13:01:27.074Z,17.40
2018-09-30T13:03:55.016Z,17.30
2018-09-30T13:06:23.271Z,17.20
2018-09-30T13:08:51.703Z,17.20
2018-09-30T13:11:20.478Z,17.30
2018-09-30T13:13:49.220Z,17.30
2018-09-30T13:16:17.762Z,17.30
2018-09-30T13:18:46.040Z,17.30
2018-09-30T13:21:16.163Z,17.30
2018-09-30T13:23:44.190Z,17.20
2018-09-30T13:26:12.502Z,17.20
2018-09-30T13:28:40.490Z,17.20
2018-09-30T13:31:08.491Z,17.20
2018-09-30T13:33:36.757Z,17.20
2018-09-30T13:36:05.186Z,17.20
2018-09-30T13:38:33.934Z,17.20
2018-09-30T13:41:02.553Z,17.20
2018-09-30T13:43:30.909Z,17.20
2018-09-30T13:45:59.630Z,17.20
2018-09-30T13:48:27.420Z,17.20
2018-09-30T13:50:56.534Z,17.20
2018-09-30T13:53:24.555Z,17.10
2018-09-30T13:55:52.624Z,17.10
2018-09-30T13:58:21.068Z,17.10
2018-09-30T14:00:49.461Z,17.10
2018-09-30T14:03:17.527Z,17.00
2018-09-30T14:05:45.676Z,17.00
2018-09-30T14:08:13.935Z,16.90
2018-09-30T14:10:42.160Z,16.90
2018-09-30T14:13:10.476Z,16.90
2018-09-30T14:15:39.154Z,16.90
2018-09-30T14:18:07.834Z,16.90
2018-09-30T14:20:36.052Z,16.90
2018-09-30T14:23:04.338Z,16.90
2018-09-30T14:25:33.144Z,16.80
2018-09-30T14:28:01.331Z,16.80
2018-09-30T14:30:29.638Z,16.80
2018-09-30T14:32:58.303Z,16.80
2018-09-30T14:35:26.711Z,16.70
2018-09-30T14:37:55.179Z,16.70
2018-09-30T14:40:23.572Z,16.70
2018-09-30T14:42:53.171Z,16.70
2018-09-30T14:45:21.550Z,16.60
2018-09-30T14:47:49.543Z,16.60
2018-09-30T14:50:20.003Z,16.60
2018-09-30T14:52:48.591Z,16.50
2018-09-30T14:55:16.669Z,16.50
2018-09-30T14:57:44.736Z,16.50
2018-09-30T15:00:13.832Z,16.50
2018-09-30T15:02:42.468Z,16.50
2018-09-30T15:05:11.928Z,16.50
2018-09-30T15:07:40.637Z,16.50
2018-09-30T15:10:09.007Z,16.40
2018-09-30T15:12:37.541Z,16.40
2018-09-30T15:15:07.863Z,16.40
2018-09-30T15:17:36.517Z,16.40
2018-09-30T15:20:05.110Z,16.30
2018-09-30T15:22:33.337Z,16.30
2018-09-30T15:25:01.562Z,16.20
2018-09-30T15:27:29.710Z,16.20
2018-09-30T15:29:58.100Z,16.00
2018-09-30T15:32:25.994Z,15.80
2018-09-30T15:34:54.148Z,15.60
2018-09-30T15:37:22.179Z,15.50
2018-09-30T15:39:50.229Z,15.30
2018-09-30T15:42:18.108Z,15.20
2018-09-30T15:44:46.036Z,14.90
2018-09-30T15:47:14.254Z,14.80
2018-09-30T15:49:42.516Z,14.50
2018-09-30T15:52:10.427Z,14.30
2018-09-30T15:54:38.364Z,14.10
2018-09-30T15:57:06.587Z,14.00
2018-09-30T15:59:34.770Z,13.80
2018-09-30T16:02:03.089Z,13.70
2018-09-30T16:04:30.980Z,13.50
2018-09-30T16:06:59.403Z,13.20
2018-09-30T16:09:27.621Z,13.10
2018-09-30T16:11:55.777Z,12.90
2018-09-30T16:14:24.350Z,12.70
2018-09-30T16:16:52.251Z,12.50
2018-09-30T16:19:20.148Z,12.40
2018-09-30T16:21:48.706Z,12.20
2018-09-30T16:24:16.686Z,12.00
2018-09-30T16:26:44.825Z,11.90
2018-09-30T16:29:13.311Z,11.70
2018-09-30T16:31:42.534Z,11.60
2018-09-30T16:34:10.665Z,11.50
2018-09-30T16:36:38.631Z,11.40
2018-09-30T16:39:08.283Z,11.30
2018-09-30T16:41:37.020Z,11.20
2018-09-30T16:44:05.640Z,11.10
2018-09-30T16:46:34.647Z,11.00
2018-09-30T16:49:02.572Z,10.80
2018-09-30T16:51:31.260Z,10.60
2018-09-30T16:53:59.303Z,10.40
2018-09-30T16:56:27.961Z,10.30
2018-09-30T16:58:55.982Z,10.20
2018-09-30T17:01:24.033Z,10.10
2018-09-30T17:03:51.998Z,10.00
2018-09-30T17:06:20.019Z,9.80
2018-09-30T17:08:48.018Z,9.70
2018-09-30T17:11:16.291Z,9.60
2018-09-30T17:13:44.627Z,9.40
2018-09-30T17:16:12.672Z,9.20
2018-09-30T17:18:40.647Z,9.10
2018-09-30T17:21:08.821Z,9.00
2018-09-30T17:23:37.003Z,9.00
2018-09-30T17:26:05.236Z,8.90
2018-09-30T17:28:33.274Z,8.70
2018-09-30T17:31:02.358Z,8.60
2018-09-30T17:33:30.603Z,8.40
2018-09-30T17:35:58.554Z,8.30
2018-09-30T17:38:26.730Z,8.20
2018-09-30T17:40:55.187Z,8.20
2018-09-30T17:43:24.355Z,8.10
2018-09-30T17:45:52.880Z,8.00
2018-09-30T17:48:21.017Z,7.90
2018-09-30T17:50:49.624Z,7.80
2018-09-30T17:53:17.538Z,7.70
2018-09-30T17:55:45.357Z,7.60
2018-09-30T17:58:13.705Z,7.50
2018-09-30T18:00:42.424Z,7.50
2018-09-30T18:03:11.788Z,7.40
2018-09-30T18:05:40.073Z,7.30
2018-09-30T18:08:08.023Z,7.20
2018-09-30T18:10:36.071Z,7.10
2018-09-30T18:13:03.887Z,7.10
2018-09-30T18:15:31.957Z,7.00
2018-09-30T18:18:00.268Z,6.90
2018-09-30T18:20:28.241Z,6.80
2018-09-30T18:22:57.070Z,6.70
2018-09-30T18:25:25.150Z,6.60
2018-09-30T18:27:53.458Z,6.50
2018-09-30T18:30:22.478Z,6.50
2018-09-30T18:32:51.166Z,6.40
2018-09-30T18:35:19.273Z,6.30
2018-09-30T18:37:49.325Z,6.20
2018-09-30T18:40:17.406Z,6.10
2018-09-30T18:42:47.373Z,6.00
2018-09-30T18:45:16.100Z,6.00
2018-09-30T18:47:45.039Z,6.00
2018-09-30T18:50:15.289Z,6.00
2018-09-30T18:52:44.277Z,5.90
2018-09-30T18:55:13.540Z,5.80
2018-09-30T18:57:41.583Z,5.80
2018-09-30T19:00:10.108Z,5.80
2018-09-30T19:02:38.423Z,5.70
2018-09-30T19:05:06.570Z,5.60
2018-09-30T19:07:34.570Z,5.50
2018-09-30T19:10:02.958Z,5.40
2018-09-30T19:12:31.100Z,5.40
2018-09-30T19:14:59.684Z,5.40
2018-09-30T19:17:27.766Z,5.30
2018-09-30T19:19:56.442Z,5.20
2018-09-30T19:22:25.364Z,5.20
2018-09-30T19:24:53.719Z,5.10
2018-09-30T19:27:22.336Z,5.10
2018-09-30T19:29:50.626Z,5.00
2018-09-30T19:32:18.839Z,4.90
2018-09-30T19:34:46.951Z,4.90
2018-09-30T19:37:15.257Z,4.80
2018-09-30T19:39:43.391Z,4.80
2018-09-30T19:42:11.537Z,4.70
2018-09-30T19:44:39.931Z,4.60
2018-09-30T19:47:08.981Z,4.50
2018-09-30T19:49:37.313Z,4.50
2018-09-30T19:52:05.480Z,4.40
2018-09-30T19:54:34.626Z,4.40
2018-09-30T19:57:03.147Z,4.30
2018-09-30T19:59:31.512Z,4.30
2018-09-30T20:01:59.767Z,4.30
2018-09-30T20:04:27.839Z,4.30
2018-09-30T20:06:55.765Z,4.20
2018-09-30T20:09:24.669Z,4.10
2018-09-30T20:11:52.679Z,4.10
2018-09-30T20:14:21.316Z,4.10
2018-09-30T20:16:49.644Z,4.10
2018-09-30T20:19:17.890Z,4.10
2018-09-30T20:21:45.898Z,4.00
2018-09-30T20:24:13.947Z,3.90
2018-09-30T20:26:42.109Z,3.90
2018-09-30T20:29:10.085Z,3.90
2018-09-30T20:31:38.660Z,3.90
2018-09-30T20:34:06.997Z,3.90
2018-09-30T20:36:36.312Z,3.90
2018-09-30T20:39:05.534Z,3.90
2018-09-30T20:41:33.991Z,3.80
2018-09-30T20:44:01.935Z,3.70
2018-09-30T20:46:30.076Z,3.70
2018-09-30T20:48:58.248Z,3.70
2018-09-30T20:51:26.409Z,3.60
2018-09-30T20:53:54.808Z,3.60
2018-09-30T20:56:23.135Z,3.60
2018-09-30T20:58:51.686Z,3.50
2018-09-30T21:01:20.967Z,3.50
2018-09-30T21:03:48.997Z,3.50
2018-09-30T21:06:28.193Z,3.40
2018-09-30T21:08:56.527Z,3.40
2018-09-30T21:11:24.494Z,3.40
2018-09-30T21:13:53.574Z,3.30
2018-09-30T21:16:21.651Z,3.30
2018-09-30T21:18:49.867Z,3.20
2018-09-30T21:21:17.852Z,3.20
2018-09-30T21:23:46.084Z,3.10
2018-09-30T21:26:14.563Z,3.10
2018-09-30T21:28:42.891Z,3.10
2018-09-30T21:31:12.167Z,3.10
2018-09-30T21:33:40.232Z,3.10
2018-09-30T21:36:09.519Z,3.10
2018-09-30T21:38:37.753Z,3.10
2018-09-30T21:41:07.758Z,3.10
2018-09-30T21:43:38.362Z,3.00
2018-09-30T21:46:07.707Z,2.90
2018-09-30T21:48:36.360Z,2.90
2018-09-30T21:51:04.732Z,2.90
2018-09-30T21:53:32.729Z,2.80
2018-09-30T21:56:01.038Z,2.80
2018-09-30T21:58:36.835Z,2.70
2018-09-30T22:01:05.620Z,2.80
2018-09-30T22:03:34.534Z,2.70
2018-09-30T22:06:02.878Z,2.70
2018-09-30T22:08:30.755Z,2.70
2018-09-30T22:10:59.022Z,2.70
2018-09-30T22:13:27.397Z,2.60
2018-09-30T22:15:55.805Z,2.60
2018-09-30T22:18:24.013Z,2.60
2018-09-30T22:20:52.379Z,2.50
2018-09-30T22:23:20.295Z,2.40
2018-09-30T22:25:48.381Z,2.50
2018-09-30T22:28:16.434Z,2.40
2018-09-30T22:30:44.800Z,2.50
2018-09-30T22:33:12.791Z,2.40
2018-09-30T22:35:40.747Z,2.40
2018-09-30T22:38:08.603Z,2.40
2018-09-30T22:40:36.463Z,2.40
2018-09-30T22:43:04.318Z,2.30
2018-09-30T22:45:32.127Z,2.30
2018-09-30T22:48:00.192Z,2.20
2018-09-30T22:50:28.377Z,2.20
2018-09-30T22:52:56.383Z,2.20
2018-09-30T22:55:24.446Z,2.20
2018-09-30T22:57:52.494Z,2.10
2018-09-30T23:00:20.581Z,2.10
2018-09-30T23:02:48.730Z,2.20
2018-09-30T23:05:16.627Z,2.20
2018-09-30T23:07:44.742Z,2.10
2018-09-30T23:10:13.377Z,2.10
2018-09-30T23:12:41.562Z,2.10
2018-09-30T23:15:09.694Z,2.10
2018-09-30T23:17:37.805Z,2.10
2018-09-30T23:20:10.460Z,2.10
2018-09-30T23:22:38.661Z,2.10
2018-09-30T23:25:06.831Z,2.10
2018-09-30T23:27:34.964Z,2.10
2018-09-30T23:30:03.204Z,2.10
2018-09-30T23:32:31.958Z,2.00
2018-09-30T23:34:59.829Z,2.00
2018-09-30T23:37:28.728Z,2.00
2018-09-30T23:39:56.749Z,2.00
2018-09-30T23:42:24.718Z,2.10
2018-09-30T23:44:52.609Z,2.10
2018-09-30T23:47:20.508Z,2.10
2018-09-30T23:49:48.419Z,2.20
2018-09-30T23:52:16.354Z,2.20
2018-09-30T23:54:44.467Z,2.20
2018-09-30T23:57:12.543Z,2.20
2018-09-30T23:59:40.663Z,2.10
